Latest Weather Observations for Ouse

IDT60801

Issued at 9:05 pm EDT Saturday 1 November 2014 (issued every 30 minutes, with the page automatically refreshed every 10 minutes)

About weather observations | Map of weather stations | Latest weather observations for TAS | Other Formats
Station Details ID: 095048 Name: OUSE FIRE STATION Lat: -42.48 Lon: 146.71 Height: 90.0 m
Data from the previous 72 hours. | See also: Recent months at Ouse
Date/Time
EDT
Temp
°C
App
Temp
°C
Dew
Point
Rel
Hum
%
Delta-T
°C
Wind Press
QNH
hPa
Press
MSL
hPa
Rain
since 9 am
mm
Dir
 
Spd
km/h
Gust
km/h
Spd
kts
Gust
kts
01/09:00pm 4.6 -1.4 1.3 79 1.3 W 22 35 12 19 1001.1 1001.1 2.6
01/08:30pm 4.9 0.0 2.1 82 1.1 W 17 30 9 16 1000.4 1000.3 2.2
01/08:00pm 5.2 -1.6 2.9 85 1.0 WNW 28 56 15 30 1000.0 999.9 2.0
01/07:30pm 4.5 0.9 2.7 88 0.7 N 11 20 6 11 999.3 999.2 2.0
01/07:00pm 5.3 0.0 3.2 86 0.9 W 20 32 11 17 999.2 999.1 2.0
01/06:36pm 6.0 -0.9 2.8 80 1.3 WSW 28 46 15 25 998.8 998.7 1.2
01/06:30pm 6.5 -1.4 2.4 75 1.7 SW 33 46 18 25 998.5 998.4 0.6
01/06:00pm 7.9 1.7 2.2 67 2.4 WSW 24 43 13 23 997.4 997.3 0.4
01/05:30pm 7.7 1.7 3.2 73 1.9 NW 24 43 13 23 997.3 997.2 0.4
01/05:17pm 7.6 -0.6 2.7 71 2.1 NW 35 54 19 29 997.3 997.2 0.4
01/05:13pm 8.2 -0.9 2.0 65 2.6 NW 39 54 21 29 997.1 997.0 0.4
01/05:00pm 10.5 2.3 0.3 49 4.2 WNW 33 52 18 28 996.5 996.4 0.4
01/04:47pm 11.6 4.6 1.8 51 4.2 WSW 28 48 15 26 996.1 996.0 0.4
01/04:46pm 11.4 3.4 1.4 50 4.2 WSW 33 48 18 26 996.1 996.0 0.4
01/04:44pm 11.1 1.0 0.2 47 4.5 W 43 67 23 36 996.1 996.0 0.4
01/04:30pm 10.8 6.9 3.4 60 3.3 WNW 13 30 7 16 995.9 995.8 0.4
01/04:00pm 8.9 3.0 4.1 72 2.1 WNW 24 39 13 21 996.3 996.2 0.4
01/03:32pm 11.6 4.9 3.6 58 3.6 WSW 28 46 15 25 995.5 995.4 0.2
01/03:30pm 11.7 4.7 4.2 60 3.4 WSW 30 46 16 25 995.5 995.4 0.2
01/03:26pm 11.3 3.7 4.1 61 3.2 WSW 33 46 18 25 995.4 995.3 0.2
01/03:07pm 11.6 2.7 2.9 55 3.8 WNW 39 61 21 33 995.5 995.4 0.2
01/03:00pm 11.5 6.9 5.8 68 2.7 NW 19 30 10 16 995.5 995.4 0.2
01/02:46pm 10.2 3.7 4.6 68 2.5 W 28 56 15 30 995.9 995.8 0.2
01/02:30pm 11.1 6.0 5.8 70 2.5 WNW 22 35 12 19 995.2 995.1 0.2
01/02:00pm 11.5 5.1 5.4 66 2.9 WNW 28 48 15 26 995.0 994.9 0.0
01/01:40pm 12.7 6.4 5.6 62 3.3 WNW 28 50 15 27 994.9 994.8 0.0
01/01:30pm 12.9 6.9 6.9 67 2.9 W 28 43 15 23 995.0 994.9 0.0
01/01:14pm 12.8 6.5 5.9 63 3.3 W 28 46 15 25 994.7 994.6 0.0
01/01:00pm 13.0 7.5 6.1 63 3.3 WNW 24 41 13 22 994.1 994.0 0.0
01/12:43pm 12.5 6.3 6.3 66 3.0 NW 28 48 15 26 994.2 994.1 0.0
01/12:30pm 13.1 6.6 6.7 65 3.1 NW 30 46 16 25 994.1 994.0 0.0
01/12:00pm 13.2 7.1 6.5 64 3.3 NW 28 46 15 25 993.8 993.7 0.0
01/11:30am 12.7 6.8 5.6 62 3.3 WNW 26 44 14 24 993.9 993.8 0.0
01/11:05am 13.7 7.3 5.3 57 4.0 WNW 28 50 15 27 993.6 993.5 0.0
01/11:00am 14.0 9.0 6.4 60 3.7 WNW 22 32 12 17 993.3 993.2 0.0
01/10:30am 12.9 6.2 5.8 62 3.4 NW 30 44 16 24 993.4 993.4 0.0
01/10:00am 13.4 8.2 5.6 59 3.7 WNW 22 35 12 19 993.1 993.2 0.0
01/09:30am 12.0 8.2 5.6 65 3.0 NNW 15 26 8 14 992.9 993.0 0.0
01/09:00am 11.5 7.4 4.3 61 3.3 NW 15 19 8 10 993.0 993.1 -
01/08:30am 12.7 7.1 5.4 61 3.4 W 24 37 13 20 993.0 993.1 -
01/08:00am 11.4 7.5 7.1 75 2.1 NW 17 33 9 18 992.7 992.8 -
01/07:30am 11.7 7.8 7.2 74 2.2 NNW 17 24 9 13 991.7 991.7 -
01/07:00am 12.2 8.5 7.9 75 2.1 NW 17 32 9 17 991.1 991.1 -
01/06:30am 11.5 9.5 10.2 92 0.7 NW 11 15 6 8 990.5 990.5 -
01/06:00am 11.2 9.2 10.3 94 0.5 N 11 15 6 8 989.8 989.8 -
01/05:30am 11.3 9.5 11.0 98 0.2 N 11 13 6 7 989.6 989.6 -
01/05:00am 11.7 10.8 11.2 97 0.3 NNW 7 11 4 6 989.8 989.8 -
01/04:30am 12.0 11.0 10.9 93 0.6 NNW 7 11 4 6 989.9 989.9 -
01/04:00am 12.4 10.5 10.6 89 0.9 N 11 15 6 8 990.6 990.6 -
01/03:30am 13.8 10.3 10.2 79 1.9 NW 19 26 10 14 991.7 991.7 -
01/03:00am 15.6 12.0 9.7 68 3.1 WNW 19 32 10 17 992.0 992.1 -
01/02:30am 16.4 12.6 9.1 62 3.8 W 19 35 10 19 990.7 990.7 -
01/02:19am 16.7 11.2 9.1 61 3.9 WNW 28 46 15 25 991.3 991.3 -
01/02:00am 17.0 13.7 9.4 61 4.0 WNW 17 37 9 20 991.5 991.5 0.0
01/01:35am 17.6 11.1 10.2 62 3.9 WNW 35 54 19 29 991.4 991.4 0.0
01/01:34am 17.7 10.4 10.3 62 4.0 WNW 39 54 21 29 991.4 991.4 0.0
01/01:30am 17.4 13.9 10.8 65 3.6 WNW 20 35 11 19 991.3 991.3 0.0
01/01:00am 13.2 11.8 9.5 78 1.9 NNW 7 11 4 6 991.4 991.4 0.0
01/12:30am 13.8 12.0 9.5 75 2.2 N 9 11 5 6 992.1 992.2 0.0
01/12:00am 15.5 13.4 9.6 68 3.1 N 11 17 6 9 992.4 992.5 0.0
 
Date/Time
EDT
Temp
°C
App
Temp
°C
Dew
Point
Rel
Hum
%
Delta-T
°C
Wind Press
QNH
hPa
Press
MSL
hPa
Rain
since 9 am
mm
Dir
 
Spd
km/h
Gust
km/h
Spd
kts
Gust
kts
31/11:30pm 17.7 14.4 9.6 59 4.3 N 17 22 9 12 992.7 992.8 0.0
31/11:00pm 15.8 13.6 9.5 66 3.3 N 11 19 6 10 993.4 993.4 0.0
31/10:30pm 15.7 13.5 9.4 66 3.3 NNW 11 17 6 9 993.5 993.5 0.0
31/10:00pm 15.9 13.6 8.9 63 3.6 NNW 11 15 6 8 994.2 994.2 0.0
31/09:30pm 15.2 12.7 8.4 64 3.4 N 11 15 6 8 994.6 994.6 0.0
31/09:00pm 15.3 12.4 8.1 62 3.7 N 13 17 7 9 994.6 994.6 0.0
31/08:30pm 16.7 13.4 7.9 56 4.5 N 15 24 8 13 994.7 994.7 0.0
31/08:00pm 17.5 15.4 8.4 55 4.7 NNW 9 13 5 7 994.8 994.8 0.0
31/07:30pm 19.0 16.2 8.6 51 5.4 NNW 13 24 7 13 995.0 995.0 0.0
31/07:00pm 20.9 18.0 9.5 48 6.2 N 15 28 8 15 994.9 994.9 0.0
31/06:30pm 21.1 18.3 10.0 49 6.0 N 15 28 8 15 995.3 995.3 0.0
31/06:00pm 21.2 18.6 10.7 51 5.8 NNW 15 24 8 13 995.6 995.6 0.0
31/05:30pm 22.3 18.5 9.8 45 6.8 NW 20 32 11 17 996.1 996.1 0.0
31/05:00pm 22.3 19.7 12.0 52 5.9 NW 17 22 9 12 996.5 996.5 0.0
31/04:30pm 21.6 19.2 12.7 57 5.1 NW 17 26 9 14 997.2 997.2 0.0
31/04:00pm 20.8 19.3 13.0 61 4.5 WNW 13 20 7 11 997.6 997.6 0.0
31/03:30pm 21.2 19.0 13.4 61 4.5 NW 17 30 9 16 998.7 998.7 0.0
31/03:00pm 20.6 17.5 13.3 63 4.2 NNW 22 35 12 19 999.4 999.4 0.0
31/02:30pm 20.5 16.9 13.2 63 4.2 NNW 24 43 13 23 999.8 999.8 0.0
31/02:00pm 20.1 17.0 13.3 65 3.9 NW 22 35 12 19 1000.5 1000.5 0.0
31/01:30pm 18.7 15.1 12.0 65 3.7 WNW 22 39 12 21 1000.9 1000.9 0.0
31/01:00pm 17.7 15.9 11.0 65 3.7 N 11 20 6 11 1000.8 1000.8 0.0
31/12:30pm 16.7 15.1 10.3 66 3.4 ENE 9 11 5 6 1001.3 1001.4 0.0
31/12:00pm 16.4 15.5 9.3 63 3.7 NNE 4 7 2 4 1002.1 1002.2 0.0
31/11:30am 15.8 14.5 9.9 68 3.1 ENE 7 11 4 6 1002.5 1002.6 0.0
31/11:00am 15.9 14.0 9.1 64 3.5 N 9 11 5 6 1002.8 1002.9 0.0
31/10:30am 16.2 13.9 8.9 62 3.8 N 11 17 6 9 1003.2 1003.3 0.0
31/10:00am 15.6 13.2 8.8 64 3.5 NNE 11 15 6 8 1003.7 1003.8 0.0
31/09:30am 14.5 12.0 8.0 65 3.3 NNW 11 17 6 9 1004.0 1004.1 0.0
31/09:00am 14.4 11.9 8.1 66 3.2 NNW 11 20 6 11 1004.2 1004.3 0.2
31/08:30am 12.7 9.8 8.2 74 2.2 NE 13 19 7 10 1004.8 1004.8 0.2
31/08:00am 12.0 9.8 7.7 75 2.1 N 9 15 5 8 1004.9 1004.9 0.2
31/07:30am 11.0 8.3 7.3 78 1.8 N 11 15 6 8 1005.1 1005.1 0.2
31/07:00am 10.7 7.2 7.4 80 1.6 NNE 15 20 8 11 1005.5 1005.5 0.2
31/06:30am 9.9 6.7 6.8 81 1.5 N 13 17 7 9 1005.6 1005.6 0.2
31/06:00am 9.9 6.4 7.0 82 1.4 NNE 15 19 8 10 1005.3 1005.3 0.2
31/05:30am 10.5 8.1 7.0 79 1.7 N 9 11 5 6 1005.2 1005.2 0.2
31/05:00am 11.4 8.8 7.7 78 1.8 NNW 11 17 6 9 1005.4 1005.4 0.2
31/04:30am 11.5 9.1 7.2 75 2.1 NNW 9 13 5 7 1005.5 1005.5 0.2
31/04:00am 12.8 10.5 7.5 70 2.6 NW 9 13 5 7 1006.0 1006.0 0.2
31/03:30am 12.6 10.5 8.1 74 2.2 N 9 13 5 7 1006.4 1006.4 0.2
31/03:00am 12.9 9.9 7.8 71 2.5 N 13 17 7 9 1006.4 1006.4 0.2
31/02:30am 12.5 10.0 8.2 75 2.1 N 11 17 6 9 1006.8 1006.8 0.2
31/02:00am 12.5 10.4 8.2 75 2.1 N 9 15 5 8 1007.2 1007.2 0.2
31/01:30am 12.5 10.4 8.2 75 2.1 NNW 9 13 5 7 1007.6 1007.6 0.2
31/01:00am 12.8 10.3 8.3 74 2.2 NNW 11 20 6 11 1008.0 1008.0 0.2
31/12:30am 12.7 10.2 8.4 75 2.1 NNW 11 17 6 9 1008.2 1008.2 0.2
31/12:00am 12.5 10.4 8.4 76 2.0 NNW 9 13 5 7 1008.4 1008.4 0.2
 
Date/Time
EDT
Temp
°C
App
Temp
°C
Dew
Point
Rel
Hum
%
Delta-T
°C
Wind Press
QNH
hPa
Press
MSL
hPa
Rain
since 9 am
mm
Dir
 
Spd
km/h
Gust
km/h
Spd
kts
Gust
kts
30/11:30pm 12.5 9.7 8.4 76 2.0 NNW 13 22 7 12 1008.5 1008.5 0.2
30/11:00pm 11.2 9.2 8.6 84 1.3 N 9 11 5 6 1008.6 1008.6 0.2
30/10:30pm 11.6 9.6 8.5 81 1.5 NNW 9 15 5 8 1008.9 1008.9 0.2
30/10:00pm 11.2 9.3 8.9 86 1.1 N 9 15 5 8 1009.1 1009.1 0.2
30/09:30pm 10.9 9.5 8.7 86 1.1 N 6 9 3 5 1009.1 1009.1 0.2
30/09:00pm 11.0 9.3 8.2 83 1.4 N 7 9 4 5 1009.0 1009.0 0.2
30/08:30pm 12.0 9.5 8.1 77 1.9 WNW 11 17 6 9 1008.9 1008.9 0.2
30/08:00pm 12.2 10.1 8.1 76 2.0 N 9 13 5 7 1008.8 1008.8 0.2
30/07:30pm 12.6 9.6 7.9 73 2.3 NNW 13 22 7 12 1008.7 1008.7 0.2
30/07:00pm 13.2 10.7 8.1 71 2.5 NNW 11 19 6 10 1008.6 1008.6 0.2
30/06:30pm 14.0 11.5 8.0 67 3.0 WNW 11 20 6 11 1008.2 1008.2 0.2
30/06:00pm 14.4 12.5 9.2 71 2.7 SSW 9 15 5 8 1008.3 1008.3 0.2
30/05:30pm 15.9 13.2 9.1 64 3.5 WSW 13 19 7 10 1008.0 1008.0 0.0
30/05:00pm 16.2 12.4 8.9 62 3.8 W 19 28 10 15 1008.0 1008.0 0.0
30/04:30pm 15.4 10.5 8.4 63 3.6 SW 24 33 13 18 1008.0 1008.0 0.0
30/04:00pm 15.3 10.3 8.1 62 3.6 W 24 30 13 16 1007.9 1007.9 0.0
30/03:30pm 16.9 13.2 10.3 65 3.5 WSW 20 32 11 17 1007.7 1007.7 0.0
30/03:00pm 15.4 11.7 9.5 68 3.1 WSW 19 30 10 16 1007.9 1007.9 0.0
30/02:30pm 17.4 12.8 8.3 55 4.7 W 22 33 12 18 1007.5 1007.5 0.0
30/02:00pm 17.0 12.8 8.2 56 4.5 WNW 20 33 11 18 1007.1 1007.1 0.0
30/01:30pm 16.4 11.8 8.1 58 4.2 W 22 35 12 19 1007.0 1007.0 0.0
30/01:00pm 16.4 12.0 8.9 61 3.9 W 22 37 12 20 1006.9 1006.9 0.0
30/12:30pm 14.9 10.8 10.1 73 2.5 WSW 22 30 12 16 1007.3 1007.3 0.0
30/12:00pm 14.7 12.5 10.9 78 2.0 WNW 13 19 7 10 1007.4 1007.4 0.0
30/11:30am 15.6 13.0 9.3 66 3.3 W 13 20 7 11 1007.3 1007.3 0.0
30/11:00am 14.9 11.1 9.1 68 3.0 W 19 30 10 16 1007.7 1007.7 0.0
30/10:30am 14.4 10.5 8.6 68 2.9 WNW 19 32 10 17 1007.8 1007.8 0.0
30/10:00am 14.3 10.3 8.3 67 3.0 WNW 19 35 10 19 1007.6 1007.6 0.0
30/09:30am 14.1 10.2 8.5 69 2.8 NNW 19 28 10 15 1007.6 1007.6 0.0
30/09:00am 13.6 10.4 8.4 71 2.6 NNW 15 24 8 13 1007.7 1007.7 0.0
30/08:30am 13.4 10.0 9.1 75 2.2 NNW 17 28 9 15 1007.5 1007.5 0.0
30/08:00am 12.5 9.4 8.8 78 1.9 NNW 15 20 8 11 1007.5 1007.5 0.0
30/07:30am 12.1 10.1 8.8 80 1.7 N 9 13 5 7 1007.6 1007.6 0.0
30/07:00am 11.5 9.4 8.4 81 1.5 N 9 17 5 9 1007.3 1007.3 0.0
30/06:30am 9.7 7.8 7.6 87 1.0 N 7 11 4 6 1007.0 1007.0 0.0
30/06:00am 10.3 8.4 7.7 84 1.3 N 7 9 4 5 1006.8 1006.8 0.0
30/05:30am 10.5 8.3 7.7 83 1.4 N 9 15 5 8 1006.7 1006.7 0.0
30/05:00am 10.0 7.7 7.4 84 1.2 N 9 13 5 7 1006.5 1006.5 0.0
30/04:30am 10.2 7.9 7.3 82 1.4 N 9 13 5 7 1006.8 1006.8 0.0
30/04:00am 10.8 8.5 7.3 79 1.7 N 9 13 5 7 1007.1 1007.1 0.0
30/03:30am 10.9 8.2 7.4 79 1.7 N 11 15 6 8 1007.1 1007.1 0.0
30/03:00am 10.9 7.8 7.2 78 1.8 NNW 13 24 7 13 1007.2 1007.2 0.0
30/02:30am 11.5 8.4 7.4 76 2.0 NNW 13 22 7 12 1007.6 1007.6 0.0
30/02:00am 11.9 8.8 7.2 73 2.3 N 13 19 7 10 1007.5 1007.5 0.0
30/01:30am 11.6 8.5 7.3 75 2.1 N 13 19 7 10 1007.7 1007.7 0.0
30/01:00am 12.1 9.0 7.4 73 2.3 NNW 13 22 7 12 1007.9 1007.9 0.0
30/12:30am 12.5 8.6 7.2 70 2.6 NNW 17 28 9 15 1008.1 1008.1 0.0
30/12:00am 12.6 9.1 7.1 69 2.7 NNW 15 22 8 12 1007.9 1007.9 0.0
 
Date/Time
EDT
Temp
°C
App
Temp
°C
Dew
Point
Rel
Hum
%
Delta-T
°C
Wind Press
QNH
hPa
Press
MSL
hPa
Rain
since 9 am
mm
Dir
 
Spd
km/h
Gust
km/h
Spd
kts
Gust
kts
29/11:30pm 12.5 10.3 7.8 73 2.3 N 9 15 5 8 1008.1 1008.1 0.0
29/11:00pm 12.7 10.1 7.8 72 2.4 NW 11 20 6 11 1008.0 1008.0 0.0
29/10:30pm 12.7 9.8 8.0 73 2.3 N 13 26 7 14 1008.3 1008.3 0.0
29/10:00pm 12.8 10.2 7.9 72 2.4 N 11 19 6 10 1008.5 1008.5 0.0
29/09:30pm 12.9 10.1 8.4 74 2.2 NW 13 20 7 11 1008.4 1008.4 0.0

Other Formats:

Comma delimited format used in spreadsheet applications
http://www.bom.gov.au/fwo/IDT60801/IDT60801.94957.axf

JavaScript Object Notation format (JSON) in row-major order
http://www.bom.gov.au/fwo/IDT60801/IDT60801.94957.json